createdAt,value
2023-02-27T00:00:19.469Z,72.35
2023-02-27T00:02:48.130Z,72.98
2023-02-27T00:05:15.525Z,72.54
2023-02-27T00:07:42.626Z,72.69
2023-02-27T00:10:10.880Z,72.79
2023-02-27T00:12:40.593Z,73.07
2023-02-27T00:15:09.712Z,72.61
2023-02-27T00:17:36.458Z,72.50
2023-02-27T00:20:04.273Z,72.87
2023-02-27T00:22:31.075Z,72.89
2023-02-27T00:24:57.749Z,73.20
2023-02-27T00:27:25.014Z,72.72
2023-02-27T00:29:51.654Z,72.88
2023-02-27T00:32:18.373Z,73.31
2023-02-27T00:34:45.015Z,73.59
2023-02-27T00:37:11.751Z,73.50
2023-02-27T00:39:38.401Z,73.28
2023-02-27T00:42:05.074Z,73.24
2023-02-27T00:44:31.722Z,73.43
2023-02-27T00:46:58.388Z,72.99
2023-02-27T00:49:25.618Z,73.26
2023-02-27T00:51:53.330Z,73.33
2023-02-27T00:54:20.420Z,72.86
2023-02-27T00:56:47.040Z,73.34
2023-02-27T00:59:13.683Z,73.15
2023-02-27T01:01:40.667Z,72.80
2023-02-27T01:04:07.789Z,72.83
2023-02-27T01:06:34.465Z,72.92
2023-02-27T01:09:01.157Z,73.37
2023-02-27T01:11:28.771Z,73.43
2023-02-27T01:13:55.413Z,73.41
2023-02-27T01:16:22.142Z,73.95
2023-02-27T01:18:48.967Z,73.79
2023-02-27T01:21:15.730Z,73.85
2023-02-27T01:23:42.485Z,73.67
2023-02-27T01:26:09.208Z,73.61
2023-02-27T01:28:35.869Z,74.15
2023-02-27T01:31:02.604Z,74.12
2023-02-27T01:33:29.482Z,73.90
2023-02-27T01:35:56.147Z,73.82
2023-02-27T01:38:22.826Z,73.65
2023-02-27T01:40:49.633Z,73.75
2023-02-27T01:43:19.681Z,73.75
2023-02-27T01:45:48.930Z,73.72
2023-02-27T01:48:24.714Z,74.00
2023-02-27T01:51:15.693Z,74.15
2023-02-27T01:53:45.262Z,73.85
2023-02-27T01:56:20.463Z,73.76
2023-02-27T01:58:48.982Z,73.78
2023-02-27T02:01:16.434Z,73.96
2023-02-27T02:03:51.292Z,74.20
2023-02-27T02:06:19.008Z,74.11
2023-02-27T02:08:48.143Z,74.00
2023-02-27T02:11:18.049Z,74.45
2023-02-27T02:13:45.109Z,74.29
2023-02-27T02:16:39.655Z,74.10
2023-02-27T02:19:06.274Z,73.97
2023-02-27T02:22:07.517Z,74.09
2023-02-27T02:24:37.195Z,73.87
2023-02-27T02:27:19.071Z,73.98
2023-02-27T02:30:07.285Z,74.04
2023-02-27T02:32:39.717Z,74.06
2023-02-27T02:35:40.723Z,74.19
2023-02-27T02:38:22.245Z,74.19
2023-02-27T02:41:04.243Z,74.15
2023-02-27T02:43:43.074Z,74.20
2023-02-27T02:46:40.469Z,74.36
2023-02-27T02:49:13.163Z,74.43
2023-02-27T02:51:42.360Z,74.45
2023-02-27T02:54:33.837Z,74.56
2023-02-27T02:57:05.587Z,74.27
2023-02-27T02:59:50.090Z,74.16
2023-02-27T03:02:26.212Z,74.20
2023-02-27T03:05:08.174Z,74.48
2023-02-27T03:07:37.814Z,74.45
2023-02-27T03:10:09.993Z,74.43
2023-02-27T03:12:41.092Z,74.34
2023-02-27T03:15:42.865Z,74.41
2023-02-27T03:18:21.538Z,74.46
2023-02-27T03:21:02.021Z,74.62
2023-02-27T03:23:36.045Z,74.57
2023-02-27T03:26:04.888Z,74.59
2023-02-27T03:28:35.923Z,74.77
2023-02-27T03:31:23.958Z,74.69
2023-02-27T03:34:01.417Z,74.66
2023-02-27T03:36:49.732Z,74.69
2023-02-27T03:39:19.276Z,74.83
2023-02-27T03:41:58.910Z,74.60
2023-02-27T03:44:25.498Z,74.79
2023-02-27T03:46:52.222Z,74.94
2023-02-27T03:49:18.904Z,75.20
2023-02-27T03:51:46.015Z,74.88
2023-02-27T03:54:21.625Z,74.69
2023-02-27T03:56:55.969Z,74.82
2023-02-27T03:59:24.619Z,74.97
2023-02-27T04:01:52.383Z,75.00
2023-02-27T04:04:19.405Z,74.85
2023-02-27T04:07:12.676Z,74.83
2023-02-27T04:09:57.994Z,74.60
2023-02-27T04:12:46.090Z,74.71
2023-02-27T04:15:40.346Z,74.78
2023-02-27T04:18:32.501Z,74.83
2023-02-27T04:21:22.215Z,74.71
2023-02-27T04:23:57.019Z,74.68
2023-02-27T04:26:23.582Z,74.79
2023-02-27T04:29:05.507Z,74.75
2023-02-27T04:31:39.515Z,74.78
2023-02-27T04:34:11.109Z,74.96
2023-02-27T04:36:46.308Z,75.03
2023-02-27T04:39:26.430Z,74.89
2023-02-27T04:42:11.541Z,75.16
2023-02-27T04:44:39.756Z,74.97
2023-02-27T04:47:10.608Z,75.03
2023-02-27T04:49:51.825Z,74.99
2023-02-27T04:52:24.724Z,75.33
2023-02-27T04:55:20.927Z,75.24
2023-02-27T04:57:54.362Z,75.41
2023-02-27T05:00:24.911Z,75.13
2023-02-27T05:03:09.492Z,75.21
2023-02-27T05:05:38.465Z,75.30
2023-02-27T05:08:33.298Z,75.61
2023-02-27T05:11:14.324Z,75.36
2023-02-27T05:13:48.060Z,75.38
2023-02-27T05:16:33.193Z,75.56
2023-02-27T05:19:01.920Z,75.43
2023-02-27T05:21:40.422Z,75.54
2023-02-27T05:24:30.585Z,75.26
2023-02-27T05:27:17.563Z,75.39
2023-02-27T05:29:53.599Z,75.35
2023-02-27T05:32:26.872Z,75.48
2023-02-27T05:35:29.097Z,75.57
2023-02-27T05:38:20.224Z,75.55
2023-02-27T05:40:52.426Z,75.58
2023-02-27T05:43:24.928Z,75.32
2023-02-27T05:45:56.344Z,75.33
2023-02-27T05:48:35.611Z,75.57
2023-02-27T05:51:03.621Z,75.66
2023-02-27T05:53:34.771Z,75.64
2023-02-27T05:56:05.441Z,75.85
2023-02-27T05:58:44.277Z,75.54
2023-02-27T06:01:12.256Z,75.69
2023-02-27T06:03:41.155Z,76.02
2023-02-27T06:06:13.622Z,75.87
2023-02-27T06:08:41.043Z,75.62
2023-02-27T06:11:07.786Z,75.63
2023-02-27T06:13:34.521Z,76.06
2023-02-27T06:16:01.388Z,75.90
2023-02-27T06:18:28.075Z,76.11
2023-02-27T06:20:54.730Z,76.17
2023-02-27T06:23:21.381Z,76.34
2023-02-27T06:25:49.223Z,76.25
2023-02-27T06:28:16.051Z,76.14
2023-02-27T06:30:43.943Z,76.30
2023-02-27T06:33:12.497Z,76.34
2023-02-27T06:35:39.659Z,76.33
2023-02-27T06:38:06.371Z,76.37
2023-02-27T06:40:33.004Z,76.71
2023-02-27T06:42:59.662Z,76.54
2023-02-27T06:45:26.395Z,76.49
2023-02-27T06:47:53.135Z,76.74
2023-02-27T06:50:20.287Z,76.66
2023-02-27T06:52:47.049Z,76.73
2023-02-27T06:55:13.785Z,76.97
2023-02-27T06:57:40.453Z,76.99
2023-02-27T07:00:08.294Z,77.02
2023-02-27T07:02:34.952Z,76.94
2023-02-27T07:05:07.780Z,77.40
2023-02-27T07:07:37.670Z,77.74
2023-02-27T07:10:11.915Z,77.60
2023-02-27T07:12:39.938Z,77.68
2023-02-27T07:15:08.103Z,78.02
2023-02-27T07:17:34.863Z,77.66
2023-02-27T07:20:01.579Z,77.60
2023-02-27T07:22:28.228Z,78.02
2023-02-27T07:24:54.896Z,77.77
2023-02-27T07:27:21.554Z,78.14
2023-02-27T07:29:48.184Z,77.90
2023-02-27T07:32:14.863Z,77.92
2023-02-27T07:34:41.602Z,77.95
2023-02-27T07:37:08.226Z,78.10
2023-02-27T07:39:34.909Z,78.30
2023-02-27T07:42:01.570Z,78.12
2023-02-27T07:44:28.306Z,78.01
2023-02-27T07:46:55.002Z,78.31
2023-02-27T07:49:21.725Z,78.03
2023-02-27T07:51:48.375Z,78.33
2023-02-27T07:54:15.103Z,78.38
2023-02-27T07:56:41.780Z,78.06
2023-02-27T07:59:08.569Z,77.85
2023-02-27T08:01:35.222Z,78.23
2023-02-27T08:04:01.888Z,78.29
2023-02-27T08:06:28.910Z,77.95
2023-02-27T08:08:55.849Z,78.24
2023-02-27T08:11:22.584Z,78.15
2023-02-27T08:14:05.426Z,77.82
2023-02-27T08:16:32.836Z,78.03
2023-02-27T08:19:00.990Z,78.24
2023-02-27T08:21:28.806Z,77.90
2023-02-27T08:23:55.764Z,78.21
2023-02-27T08:26:22.655Z,78.12
2023-02-27T08:28:49.436Z,77.91
2023-02-27T08:31:16.322Z,77.64
2023-02-27T08:33:43.016Z,77.81
2023-02-27T08:36:10.252Z,77.47
2023-02-27T08:38:37.183Z,77.75
2023-02-27T08:41:04.502Z,77.88
2023-02-27T08:43:31.172Z,77.88
2023-02-27T08:45:58.163Z,77.56
2023-02-27T08:48:24.996Z,77.87
2023-02-27T08:50:52.375Z,77.85
2023-02-27T08:53:19.497Z,77.73
2023-02-27T08:55:50.145Z,77.50
2023-02-27T08:58:18.176Z,77.33
2023-02-27T09:00:45.674Z,77.34
2023-02-27T09:03:17.769Z,77.58
2023-02-27T09:05:44.428Z,77.42
2023-02-27T09:08:11.809Z,77.26
2023-02-27T09:10:38.483Z,77.38
2023-02-27T09:13:05.186Z,77.23
2023-02-27T09:15:34.547Z,77.25
2023-02-27T09:18:03.328Z,77.16
2023-02-27T09:20:31.841Z,77.00
2023-02-27T09:22:59.729Z,76.96
2023-02-27T09:25:27.324Z,76.72
2023-02-27T09:27:54.221Z,76.77
2023-02-27T09:30:21.310Z,76.87
2023-02-27T09:32:48.100Z,76.73
2023-02-27T09:35:17.615Z,76.98
2023-02-27T09:37:44.368Z,76.74
2023-02-27T09:40:37.832Z,76.62
2023-02-27T09:43:14.655Z,76.52
2023-02-27T09:45:42.212Z,76.44
2023-02-27T09:48:28.784Z,76.15
2023-02-27T09:50:57.178Z,76.17
2023-02-27T09:53:27.657Z,76.23
2023-02-27T09:56:04.496Z,76.24
2023-02-27T09:58:55.686Z,75.71
2023-02-27T10:01:32.032Z,75.84
2023-02-27T10:04:35.997Z,75.80
2023-02-27T10:07:44.779Z,75.29
2023-02-27T10:10:11.390Z,75.46
2023-02-27T10:12:58.504Z,75.66
2023-02-27T10:15:36.936Z,75.40
2023-02-27T10:18:27.010Z,75.36
2023-02-27T10:21:10.522Z,75.07
2023-02-27T10:23:44.129Z,75.55
2023-02-27T10:26:24.966Z,75.17
2023-02-27T10:28:51.856Z,74.77
2023-02-27T10:31:23.886Z,74.76
2023-02-27T10:33:52.299Z,74.90
2023-02-27T10:36:33.093Z,74.60
2023-02-27T10:39:15.602Z,74.54
2023-02-27T10:41:45.472Z,74.20
2023-02-27T10:44:16.528Z,74.29
2023-02-27T10:46:43.504Z,74.21
2023-02-27T10:49:19.491Z,73.86
2023-02-27T10:51:48.054Z,73.81
2023-02-27T10:54:24.664Z,73.73
2023-02-27T10:56:54.635Z,73.79
2023-02-27T10:59:33.084Z,73.25
2023-02-27T11:02:21.792Z,73.42
2023-02-27T11:04:58.693Z,72.93
2023-02-27T11:07:28.114Z,72.62
2023-02-27T11:10:05.129Z,73.12
2023-02-27T11:12:35.471Z,72.41
2023-02-27T11:15:22.137Z,72.41
2023-02-27T11:17:49.078Z,72.27
2023-02-27T11:20:37.698Z,72.42
2023-02-27T11:23:06.145Z,71.90
2023-02-27T11:25:33.701Z,71.45
2023-02-27T11:28:30.420Z,71.82
2023-02-27T11:31:02.118Z,71.82
2023-02-27T11:33:31.765Z,71.70
2023-02-27T11:35:59.603Z,71.17
2023-02-27T11:38:29.072Z,71.07
2023-02-27T11:41:07.300Z,70.87
2023-02-27T11:43:33.878Z,70.65
2023-02-27T11:46:29.542Z,70.35
2023-02-27T11:49:24.721Z,70.54
2023-02-27T11:52:03.185Z,70.28
2023-02-27T11:54:48.667Z,70.02
2023-02-27T11:57:35.147Z,69.92
2023-02-27T12:00:08.846Z,70.15
2023-02-27T12:02:50.533Z,69.83
2023-02-27T12:05:44.390Z,69.96
2023-02-27T12:08:36.076Z,69.42
2023-02-27T12:11:16.023Z,69.18
2023-02-27T12:13:47.439Z,68.99
2023-02-27T12:16:22.497Z,68.82
2023-02-27T12:18:56.041Z,68.40
2023-02-27T12:21:27.252Z,68.06
2023-02-27T12:23:59.063Z,67.93
2023-02-27T12:26:39.995Z,68.54
2023-02-27T12:29:40.531Z,68.29
2023-02-27T12:32:42.948Z,67.53
2023-02-27T12:35:27.951Z,67.67
2023-02-27T12:37:55.716Z,67.28
2023-02-27T12:40:39.414Z,67.25
2023-02-27T12:43:11.996Z,67.47
2023-02-27T12:45:53.721Z,67.24
2023-02-27T12:48:48.027Z,67.06
2023-02-27T12:51:36.228Z,66.81
2023-02-27T12:54:27.110Z,67.06
2023-02-27T12:57:05.668Z,66.79
2023-02-27T13:00:09.453Z,67.01
2023-02-27T13:02:54.726Z,66.65
2023-02-27T13:05:45.780Z,66.48
2023-02-27T13:08:39.038Z,66.43
2023-02-27T13:11:12.153Z,66.37
2023-02-27T13:13:44.123Z,66.09
2023-02-27T13:16:17.744Z,66.31
2023-02-27T13:18:54.512Z,66.21
2023-02-27T13:21:39.963Z,66.32
2023-02-27T13:24:20.675Z,66.10
2023-02-27T13:26:55.978Z,65.87
2023-02-27T13:29:34.946Z,66.09
2023-02-27T13:32:29.975Z,65.95
2023-02-27T13:35:31.258Z,65.40
2023-02-27T13:38:05.336Z,64.85
2023-02-27T13:40:40.254Z,65.10
2023-02-27T13:43:33.193Z,65.04
2023-02-27T13:46:34.345Z,65.26
2023-02-27T13:49:20.050Z,65.05
2023-02-27T13:51:56.760Z,64.83
2023-02-27T13:54:39.516Z,64.37
2023-02-27T13:57:19.028Z,64.60
2023-02-27T13:59:54.019Z,64.35
2023-02-27T14:02:46.624Z,64.51
2023-02-27T14:05:32.866Z,64.73
2023-02-27T14:08:10.742Z,63.95
2023-02-27T14:10:40.595Z,64.26
2023-02-27T14:13:45.358Z,63.64
2023-02-27T14:16:33.509Z,63.88
2023-02-27T14:19:01.669Z,63.54
2023-02-27T14:21:49.870Z,63.38
2023-02-27T14:24:20.753Z,63.89
2023-02-27T14:26:47.766Z,63.90
2023-02-27T14:29:18.582Z,63.63
2023-02-27T14:31:45.949Z,63.92
2023-02-27T14:34:16.302Z,63.82
2023-02-27T14:36:47.443Z,63.96
2023-02-27T14:39:35.080Z,63.76
2023-02-27T14:42:39.323Z,63.09
2023-02-27T14:45:15.598Z,63.25
2023-02-27T14:47:42.854Z,63.18
2023-02-27T14:50:25.374Z,63.07
2023-02-27T14:52:52.358Z,63.09
2023-02-27T14:55:27.950Z,62.51
2023-02-27T14:57:56.151Z,62.91
2023-02-27T15:00:35.030Z,63.00
2023-02-27T15:03:16.418Z,63.02
2023-02-27T15:05:43.335Z,63.25
2023-02-27T15:08:23.874Z,63.24
2023-02-27T15:10:53.002Z,62.91
2023-02-27T15:13:24.683Z,63.02
2023-02-27T15:15:53.944Z,63.29
2023-02-27T15:18:23.114Z,63.31
2023-02-27T15:20:58.010Z,62.92
2023-02-27T15:23:28.203Z,62.94
2023-02-27T15:25:57.324Z,63.25
2023-02-27T15:28:26.948Z,63.47
2023-02-27T15:30:55.937Z,63.13
2023-02-27T15:33:30.825Z,63.25
2023-02-27T15:35:58.566Z,63.32
2023-02-27T15:38:34.449Z,63.11
2023-02-27T15:41:03.485Z,63.24
2023-02-27T15:43:31.484Z,63.29
2023-02-27T15:45:58.540Z,63.41
2023-02-27T15:48:26.052Z,63.71
2023-02-27T15:51:03.816Z,63.83
2023-02-27T15:53:34.127Z,63.87
2023-02-27T15:56:04.703Z,63.44
2023-02-27T15:58:35.574Z,63.62
2023-02-27T16:01:06.180Z,63.91
2023-02-27T16:03:37.232Z,63.52
2023-02-27T16:06:12.228Z,63.53
2023-02-27T16:08:46.401Z,63.66
2023-02-27T16:11:34.714Z,63.61
2023-02-27T16:14:02.126Z,63.84
2023-02-27T16:16:36.215Z,63.71
2023-02-27T16:19:28.078Z,64.08
2023-02-27T16:22:14.466Z,64.76
2023-02-27T16:24:45.314Z,64.51
2023-02-27T16:27:31.902Z,64.69
2023-02-27T16:30:03.058Z,64.23
2023-02-27T16:32:36.111Z,64.22
2023-02-27T16:35:08.549Z,64.91
2023-02-27T16:37:38.052Z,64.54
2023-02-27T16:40:15.508Z,65.01
2023-02-27T16:42:42.980Z,64.46
2023-02-27T16:45:27.531Z,64.99
2023-02-27T16:47:56.975Z,64.75
2023-02-27T16:50:31.764Z,65.52
2023-02-27T16:52:58.466Z,64.84
2023-02-27T16:55:26.008Z,65.31
2023-02-27T16:57:52.737Z,65.38
2023-02-27T17:00:20.860Z,65.03
2023-02-27T17:02:48.330Z,65.52
2023-02-27T17:05:15.581Z,65.10
2023-02-27T17:07:42.891Z,65.59
2023-02-27T17:10:16.361Z,65.27
2023-02-27T17:12:44.145Z,65.72
2023-02-27T17:15:11.269Z,65.69
2023-02-27T17:17:37.967Z,65.31
2023-02-27T17:20:07.404Z,65.73
2023-02-27T17:22:42.972Z,65.81
2023-02-27T17:25:11.411Z,66.01
2023-02-27T17:27:38.405Z,65.96
2023-02-27T17:30:06.596Z,65.63
2023-02-27T17:32:34.663Z,65.60
2023-02-27T17:35:02.791Z,66.13
2023-02-27T17:37:29.550Z,65.88
2023-02-27T17:39:56.232Z,65.86
2023-02-27T17:42:25.776Z,65.81
2023-02-27T17:44:52.583Z,66.24
2023-02-27T17:47:19.565Z,66.14
2023-02-27T17:49:46.283Z,66.52
2023-02-27T17:52:13.150Z,66.25
2023-02-27T17:54:40.025Z,66.39
2023-02-27T17:57:06.928Z,66.39
2023-02-27T17:59:33.736Z,66.19
2023-02-27T18:02:00.403Z,66.31
2023-02-27T18:04:27.073Z,67.08
2023-02-27T18:06:54.232Z,66.68
2023-02-27T18:09:20.974Z,66.86
2023-02-27T18:11:47.722Z,66.82
2023-02-27T18:14:14.394Z,67.04
2023-02-27T18:16:42.630Z,67.30
2023-02-27T18:19:09.434Z,66.82
2023-02-27T18:21:36.138Z,67.03
2023-02-27T18:24:02.969Z,67.10
2023-02-27T18:26:32.925Z,66.98
2023-02-27T18:29:04.320Z,67.11
2023-02-27T18:31:34.795Z,66.97
2023-02-27T18:34:02.562Z,66.95
2023-02-27T18:36:30.429Z,67.24
2023-02-27T18:38:58.518Z,67.15
2023-02-27T18:41:25.316Z,67.21
2023-02-27T18:43:52.055Z,67.44
2023-02-27T18:46:18.942Z,67.13
2023-02-27T18:48:46.239Z,67.60
2023-02-27T18:51:15.552Z,67.60
2023-02-27T18:53:45.912Z,67.73
2023-02-27T18:56:14.031Z,67.47
2023-02-27T18:58:41.129Z,67.70
2023-02-27T19:01:08.450Z,67.58
2023-02-27T19:03:36.024Z,67.53
2023-02-27T19:06:03.512Z,67.41
2023-02-27T19:08:30.508Z,67.83
2023-02-27T19:10:58.557Z,67.46
2023-02-27T19:13:25.866Z,67.81
2023-02-27T19:15:54.033Z,67.98
2023-02-27T19:18:20.726Z,68.00
2023-02-27T19:20:47.751Z,67.87
2023-02-27T19:23:14.416Z,68.02
2023-02-27T19:25:42.126Z,67.99
2023-02-27T19:28:14.612Z,68.11
2023-02-27T19:30:41.429Z,67.89
2023-02-27T19:33:08.921Z,68.04
2023-02-27T19:35:38.781Z,68.13
2023-02-27T19:38:05.506Z,68.41
2023-02-27T19:40:32.315Z,68.33
2023-02-27T19:43:01.179Z,68.44
2023-02-27T19:45:28.395Z,68.33
2023-02-27T19:47:55.150Z,68.24
2023-02-27T19:50:21.799Z,68.14
2023-02-27T19:52:48.503Z,68.06
2023-02-27T19:55:15.219Z,68.18
2023-02-27T19:57:42.627Z,68.34
2023-02-27T20:00:10.352Z,68.17
2023-02-27T20:02:39.011Z,68.20
2023-02-27T20:05:06.324Z,68.47
2023-02-27T20:07:33.100Z,68.22
2023-02-27T20:09:59.814Z,68.27
2023-02-27T20:12:26.620Z,68.30
2023-02-27T20:14:53.307Z,68.47
2023-02-27T20:17:20.029Z,68.42
2023-02-27T20:19:46.661Z,68.33
2023-02-27T20:22:13.734Z,68.16
2023-02-27T20:24:40.400Z,68.26
2023-02-27T20:27:07.482Z,68.54
2023-02-27T20:29:34.143Z,68.53
2023-02-27T20:32:01.286Z,68.54
2023-02-27T20:34:28.651Z,68.58
2023-02-27T20:36:56.367Z,68.79
2023-02-27T20:39:23.811Z,68.72
2023-02-27T20:41:54.485Z,68.82
2023-02-27T20:44:21.304Z,68.76
2023-02-27T20:46:50.729Z,68.63
2023-02-27T20:49:18.018Z,68.82
2023-02-27T20:51:45.223Z,69.06
2023-02-27T20:54:20.091Z,69.00
2023-02-27T20:56:48.716Z,68.85
2023-02-27T20:59:16.826Z,68.88
2023-02-27T21:01:51.535Z,69.11
2023-02-27T21:04:42.927Z,69.03
2023-02-27T21:07:15.457Z,69.08
2023-02-27T21:09:42.355Z,68.92
2023-02-27T21:12:09.560Z,69.21
2023-02-27T21:14:37.072Z,68.98
2023-02-27T21:17:05.774Z,69.37
2023-02-27T21:19:32.515Z,69.33
2023-02-27T21:21:59.204Z,69.21
2023-02-27T21:24:25.968Z,69.08
2023-02-27T21:26:52.795Z,68.91
2023-02-27T21:29:21.358Z,69.50
2023-02-27T21:31:50.358Z,69.19
2023-02-27T21:34:23.750Z,69.52
2023-02-27T21:36:52.107Z,69.11
2023-02-27T21:39:27.485Z,69.52
2023-02-27T21:41:54.804Z,69.25
2023-02-27T21:44:26.267Z,69.04
2023-02-27T21:46:55.928Z,69.42
2023-02-27T21:49:28.373Z,69.23
2023-02-27T21:51:55.735Z,69.22
2023-02-27T21:54:23.103Z,69.32
